sensor_id;sensor_type;location;lat;lon;timestamp;temperature;humidity
21001;DHT22;10658;50.920;12.238;2023-01-29T00:00:16;-1.50;99.90
21001;DHT22;10658;50.920;12.238;2023-01-29T00:04:21;-1.60;99.90
21001;DHT22;10658;50.920;12.238;2023-01-29T00:08:28;-1.70;99.90
21001;DHT22;10658;50.920;12.238;2023-01-29T00:12:31;-1.70;99.90
21001;DHT22;10658;50.920;12.238;2023-01-29T00:16:35;-1.70;99.90
21001;DHT22;10658;50.920;12.238;2023-01-29T00:20:37;-1.80;99.90
21001;DHT22;10658;50.920;12.238;2023-01-29T00:24:39;-1.90;99.90
21001;DHT22;10658;50.920;12.238;2023-01-29T00:28:41;-1.90;99.90
21001;DHT22;10658;50.920;12.238;2023-01-29T00:32:45;-1.90;99.90
21001;DHT22;10658;50.920;12.238;2023-01-29T00:36:47;-2.00;99.90
21001;DHT22;10658;50.920;12.238;2023-01-29T00:40:50;-2.00;99.90
21001;DHT22;10658;50.920;12.238;2023-01-29T00:45:14;-2.00;99.90
21001;DHT22;10658;50.920;12.238;2023-01-29T00:49:15;-2.10;99.90
21001;DHT22;10658;50.920;12.238;2023-01-29T00:53:18;-2.20;99.90
21001;DHT22;10658;50.920;12.238;2023-01-29T00:57:22;-2.40;99.90
21001;DHT22;10658;50.920;12.238;2023-01-29T01:01:24;-2.60;99.90
21001;DHT22;10658;50.920;12.238;2023-01-29T01:05:46;-2.70;99.90
21001;DHT22;10658;50.920;12.238;2023-01-29T01:09:49;-2.90;99.90
21001;DHT22;10658;50.920;12.238;2023-01-29T01:14:09;-3.00;99.90
21001;DHT22;10658;50.920;12.238;2023-01-29T01:18:10;-3.00;99.90
21001;DHT22;10658;50.920;12.238;2023-01-29T01:22:13;-3.20;99.90
21001;DHT22;10658;50.920;12.238;2023-01-29T01:26:14;-3.30;99.90
21001;DHT22;10658;50.920;12.238;2023-01-29T01:30:15;-3.40;99.90
21001;DHT22;10658;50.920;12.238;2023-01-29T01:34:18;-3.50;99.90
21001;DHT22;10658;50.920;12.238;2023-01-29T01:38:20;-3.60;99.90
21001;DHT22;10658;50.920;12.238;2023-01-29T01:42:22;-3.60;99.90
21001;DHT22;10658;50.920;12.238;2023-01-29T01:46:28;-3.70;99.90
21001;DHT22;10658;50.920;12.238;2023-01-29T01:50:44;-3.80;99.90
21001;DHT22;10658;50.920;12.238;2023-01-29T01:54:47;-3.90;99.90
21001;DHT22;10658;50.920;12.238;2023-01-29T01:58:54;-3.90;99.90
21001;DHT22;10658;50.920;12.238;2023-01-29T02:03:04;-4.00;99.90
21001;DHT22;10658;50.920;12.238;2023-01-29T02:07:25;-4.00;99.90
21001;DHT22;10658;50.920;12.238;2023-01-29T02:11:47;-4.00;99.90
21001;DHT22;10658;50.920;12.238;2023-01-29T02:15:48;-4.00;99.90
21001;DHT22;10658;50.920;12.238;2023-01-29T02:25:06;-4.10;99.90
21001;DHT22;10658;50.920;12.238;2023-01-29T02:29:30;-4.10;99.90
21001;DHT22;10658;50.920;12.238;2023-01-29T02:38:37;-4.20;99.90
21001;DHT22;10658;50.920;12.238;2023-01-29T02:47:29;-4.40;99.90
21001;DHT22;10658;50.920;12.238;2023-01-29T02:56:23;-4.40;99.90
21001;DHT22;10658;50.920;12.238;2023-01-29T03:00:31;-4.40;99.90
21001;DHT22;10658;50.920;12.238;2023-01-29T03:04:40;-4.40;99.90
21001;DHT22;10658;50.920;12.238;2023-01-29T03:09:00;-4.40;99.90
21001;DHT22;10658;50.920;12.238;2023-01-29T03:13:29;-4.40;99.90
21001;DHT22;10658;50.920;12.238;2023-01-29T03:17:39;-4.40;99.90
21001;DHT22;10658;50.920;12.238;2023-01-29T03:21:49;-4.40;99.90
21001;DHT22;10658;50.920;12.238;2023-01-29T03:26:02;-4.30;99.90
21001;DHT22;10658;50.920;12.238;2023-01-29T03:30:24;-4.30;99.90
21001;DHT22;10658;50.920;12.238;2023-01-29T03:35:14;-4.40;99.90
21001;DHT22;10658;50.920;12.238;2023-01-29T03:39:24;-4.40;99.90
21001;DHT22;10658;50.920;12.238;2023-01-29T03:43:43;-4.40;99.90
21001;DHT22;10658;50.920;12.238;2023-01-29T03:48:14;-4.50;99.90
21001;DHT22;10658;50.920;12.238;2023-01-29T03:52:40;-4.50;99.90
21001;DHT22;10658;50.920;12.238;2023-01-29T04:01:27;-4.40;99.90
21001;DHT22;10658;50.920;12.238;2023-01-29T04:10:24;-4.40;99.90
21001;DHT22;10658;50.920;12.238;2023-01-29T04:14:31;-4.30;99.90
21001;DHT22;10658;50.920;12.238;2023-01-29T04:18:36;-4.20;99.90
21001;DHT22;10658;50.920;12.238;2023-01-29T04:22:57;-4.10;99.90
21001;DHT22;10658;50.920;12.238;2023-01-29T04:27:28;-4.10;99.90
21001;DHT22;10658;50.920;12.238;2023-01-29T04:32:20;-4.30;99.90
21001;DHT22;10658;50.920;12.238;2023-01-29T04:36:57;-4.30;99.90
21001;DHT22;10658;50.920;12.238;2023-01-29T04:41:26;-4.30;99.90
21001;DHT22;10658;50.920;12.238;2023-01-29T04:46:02;-4.30;99.90
21001;DHT22;10658;50.920;12.238;2023-01-29T04:50:41;-4.40;99.90
21001;DHT22;10658;50.920;12.238;2023-01-29T04:55:12;-4.40;99.90
21001;DHT22;10658;50.920;12.238;2023-01-29T04:59:40;-4.40;99.90
21001;DHT22;10658;50.920;12.238;2023-01-29T05:03:52;-4.30;99.90
21001;DHT22;10658;50.920;12.238;2023-01-29T05:08:08;-4.40;99.90
21001;DHT22;10658;50.920;12.238;2023-01-29T05:12:29;-4.40;99.90
21001;DHT22;10658;50.920;12.238;2023-01-29T05:16:39;-4.50;99.90
21001;DHT22;10658;50.920;12.238;2023-01-29T05:25:33;-4.60;99.90
21001;DHT22;10658;50.920;12.238;2023-01-29T05:29:48;-4.60;99.90
21001;DHT22;10658;50.920;12.238;2023-01-29T05:33:52;-4.60;99.90
21001;DHT22;10658;50.920;12.238;2023-01-29T05:38:01;-4.60;99.90
21001;DHT22;10658;50.920;12.238;2023-01-29T05:42:06;-4.70;99.90
21001;DHT22;10658;50.920;12.238;2023-01-29T05:46:35;-4.80;99.90
21001;DHT22;10658;50.920;12.238;2023-01-29T05:50:47;-4.80;99.90
21001;DHT22;10658;50.920;12.238;2023-01-29T05:55:07;-4.90;99.90
21001;DHT22;10658;50.920;12.238;2023-01-29T05:59:16;-4.80;99.90
21001;DHT22;10658;50.920;12.238;2023-01-29T06:03:34;-4.90;99.90
21001;DHT22;10658;50.920;12.238;2023-01-29T06:07:38;-4.90;99.90
21001;DHT22;10658;50.920;12.238;2023-01-29T06:11:57;-4.90;99.90
21001;DHT22;10658;50.920;12.238;2023-01-29T06:16:17;-4.80;99.90
21001;DHT22;10658;50.920;12.238;2023-01-29T06:20:44;-4.80;99.90
21001;DHT22;10658;50.920;12.238;2023-01-29T06:24:50;-4.80;99.90
21001;DHT22;10658;50.920;12.238;2023-01-29T06:29:00;-4.80;99.90
21001;DHT22;10658;50.920;12.238;2023-01-29T06:33:09;-4.80;99.90
21001;DHT22;10658;50.920;12.238;2023-01-29T06:37:13;-4.70;99.90
21001;DHT22;10658;50.920;12.238;2023-01-29T06:41:23;-4.80;99.90
21001;DHT22;10658;50.920;12.238;2023-01-29T06:45:31;-4.80;99.90
21001;DHT22;10658;50.920;12.238;2023-01-29T06:49:35;-4.80;99.90
21001;DHT22;10658;50.920;12.238;2023-01-29T06:53:46;-4.80;99.90
21001;DHT22;10658;50.920;12.238;2023-01-29T06:57:53;-4.80;99.90
21001;DHT22;10658;50.920;12.238;2023-01-29T07:02:11;-4.90;99.90
21001;DHT22;10658;50.920;12.238;2023-01-29T07:06:37;-5.00;99.90
21001;DHT22;10658;50.920;12.238;2023-01-29T07:10:57;-5.00;99.90
21001;DHT22;10658;50.920;12.238;2023-01-29T07:15:14;-4.90;99.90
21001;DHT22;10658;50.920;12.238;2023-01-29T07:19:33;-4.80;99.90
21001;DHT22;10658;50.920;12.238;2023-01-29T07:23:34;-4.70;99.90
21001;DHT22;10658;50.920;12.238;2023-01-29T07:27:41;-4.70;99.90
21001;DHT22;10658;50.920;12.238;2023-01-29T07:31:54;-4.70;99.90
21001;DHT22;10658;50.920;12.238;2023-01-29T07:36:05;-4.60;99.90
21001;DHT22;10658;50.920;12.238;2023-01-29T07:40:28;-4.70;99.90
21001;DHT22;10658;50.920;12.238;2023-01-29T07:44:40;-4.50;99.90
21001;DHT22;10658;50.920;12.238;2023-01-29T07:48:50;-4.40;99.90
21001;DHT22;10658;50.920;12.238;2023-01-29T07:53:03;-4.30;99.90
21001;DHT22;10658;50.920;12.238;2023-01-29T07:57:14;-4.10;99.90
21001;DHT22;10658;50.920;12.238;2023-01-29T08:01:27;-4.00;99.90
21001;DHT22;10658;50.920;12.238;2023-01-29T08:05:43;-3.90;99.90
21001;DHT22;10658;50.920;12.238;2023-01-29T08:10:11;-3.90;99.90
21001;DHT22;10658;50.920;12.238;2023-01-29T08:14:36;-3.80;99.90
21001;DHT22;10658;50.920;12.238;2023-01-29T08:18:49;-3.70;99.90
21001;DHT22;10658;50.920;12.238;2023-01-29T08:23:06;-3.60;99.90
21001;DHT22;10658;50.920;12.238;2023-01-29T08:27:15;-3.50;99.90
21001;DHT22;10658;50.920;12.238;2023-01-29T08:31:33;-3.50;99.90
21001;DHT22;10658;50.920;12.238;2023-01-29T08:35:53;-3.40;99.90
21001;DHT22;10658;50.920;12.238;2023-01-29T08:39:59;-3.40;99.90
21001;DHT22;10658;50.920;12.238;2023-01-29T08:44:09;-3.40;99.90
21001;DHT22;10658;50.920;12.238;2023-01-29T08:48:27;-3.30;99.90
21001;DHT22;10658;50.920;12.238;2023-01-29T08:52:43;-3.30;99.90
21001;DHT22;10658;50.920;12.238;2023-01-29T08:56:50;-3.10;99.90
21001;DHT22;10658;50.920;12.238;2023-01-29T09:01:20;-3.00;99.90
21001;DHT22;10658;50.920;12.238;2023-01-29T09:05:38;-2.90;99.90
21001;DHT22;10658;50.920;12.238;2023-01-29T09:14:53;-2.80;99.90
21001;DHT22;10658;50.920;12.238;2023-01-29T09:19:08;-2.80;99.90
21001;DHT22;10658;50.920;12.238;2023-01-29T09:23:24;-2.70;99.90
21001;DHT22;10658;50.920;12.238;2023-01-29T09:28:00;-2.50;99.90
21001;DHT22;10658;50.920;12.238;2023-01-29T09:32:28;-2.50;99.90
21001;DHT22;10658;50.920;12.238;2023-01-29T09:36:38;-2.50;99.90
21001;DHT22;10658;50.920;12.238;2023-01-29T09:41:05;-2.40;99.90
21001;DHT22;10658;50.920;12.238;2023-01-29T09:45:32;-2.40;99.90
21001;DHT22;10658;50.920;12.238;2023-01-29T09:59:07;-2.30;99.90
21001;DHT22;10658;50.920;12.238;2023-01-29T10:04:25;-2.20;99.90
21001;DHT22;10658;50.920;12.238;2023-01-29T10:13:13;-2.00;99.90
21001;DHT22;10658;50.920;12.238;2023-01-29T10:26:13;-1.70;99.90
21001;DHT22;10658;50.920;12.238;2023-01-29T10:30:36;-1.60;99.90
21001;DHT22;10658;50.920;12.238;2023-01-29T10:34:55;-1.50;99.90
21001;DHT22;10658;50.920;12.238;2023-01-29T10:38:58;-1.50;99.90
21001;DHT22;10658;50.920;12.238;2023-01-29T10:56:42;-1.40;99.90
21001;DHT22;10658;50.920;12.238;2023-01-29T11:00:49;-1.20;99.90
21001;DHT22;10658;50.920;12.238;2023-01-29T11:04:51;-1.10;99.90
21001;DHT22;10658;50.920;12.238;2023-01-29T11:13:30;-1.00;99.90
21001;DHT22;10658;50.920;12.238;2023-01-29T11:17:34;-0.80;99.90
21001;DHT22;10658;50.920;12.238;2023-01-29T11:21:58;-0.70;99.90
21001;DHT22;10658;50.920;12.238;2023-01-29T11:26:00;-0.70;99.90
21001;DHT22;10658;50.920;12.238;2023-01-29T11:30:02;-0.80;99.90
21001;DHT22;10658;50.920;12.238;2023-01-29T11:34:22;-0.70;99.90
21001;DHT22;10658;50.920;12.238;2023-01-29T11:38:27;-0.80;99.90
21001;DHT22;10658;50.920;12.238;2023-01-29T11:42:30;-0.80;99.90
21001;DHT22;10658;50.920;12.238;2023-01-29T11:46:31;-0.80;99.90
21001;DHT22;10658;50.920;12.238;2023-01-29T11:50:38;-0.90;99.90
21001;DHT22;10658;50.920;12.238;2023-01-29T11:55:26;-0.70;99.90
21001;DHT22;10658;50.920;12.238;2023-01-29T12:03:38;-0.60;99.90
21001;DHT22;10658;50.920;12.238;2023-01-29T12:07:43;-0.50;99.90
21001;DHT22;10658;50.920;12.238;2023-01-29T12:11:45;-0.40;99.90
21001;DHT22;10658;50.920;12.238;2023-01-29T12:15:47;-0.30;99.90
21001;DHT22;10658;50.920;12.238;2023-01-29T12:20:21;-0.30;99.90
21001;DHT22;10658;50.920;12.238;2023-01-29T12:29:24;-0.30;99.90
21001;DHT22;10658;50.920;12.238;2023-01-29T12:38:02;-0.10;99.90
21001;DHT22;10658;50.920;12.238;2023-01-29T12:42:15;-0.10;99.90
21001;DHT22;10658;50.920;12.238;2023-01-29T12:46:25;0.10;99.90
21001;DHT22;10658;50.920;12.238;2023-01-29T12:50:29;-0.10;99.90
21001;DHT22;10658;50.920;12.238;2023-01-29T12:54:37;-0.10;99.90
21001;DHT22;10658;50.920;12.238;2023-01-29T12:58:46;-0.10;99.90
21001;DHT22;10658;50.920;12.238;2023-01-29T13:07:11;-0.20;99.90
21001;DHT22;10658;50.920;12.238;2023-01-29T13:11:23;-0.10;99.90
21001;DHT22;10658;50.920;12.238;2023-01-29T13:15:34;-0.10;99.90
21001;DHT22;10658;50.920;12.238;2023-01-29T13:19:41;0.00;99.90
21001;DHT22;10658;50.920;12.238;2023-01-29T13:23:51;0.10;99.90
21001;DHT22;10658;50.920;12.238;2023-01-29T13:27:53;0.00;99.90
21001;DHT22;10658;50.920;12.238;2023-01-29T13:31:59;0.00;99.90
21001;DHT22;10658;50.920;12.238;2023-01-29T13:36:01;0.20;99.90
21001;DHT22;10658;50.920;12.238;2023-01-29T13:40:05;0.10;99.90
21001;DHT22;10658;50.920;12.238;2023-01-29T13:44:28;0.10;99.90
21001;DHT22;10658;50.920;12.238;2023-01-29T13:48:32;0.20;99.90
21001;DHT22;10658;50.920;12.238;2023-01-29T13:53:06;0.30;99.90
21001;DHT22;10658;50.920;12.238;2023-01-29T13:57:33;0.20;99.90
21001;DHT22;10658;50.920;12.238;2023-01-29T14:02:02;0.10;99.90
21001;DHT22;10658;50.920;12.238;2023-01-29T14:06:04;0.10;99.90
21001;DHT22;10658;50.920;12.238;2023-01-29T14:10:15;0.10;99.90
21001;DHT22;10658;50.920;12.238;2023-01-29T14:15:19;0.10;99.90
21001;DHT22;10658;50.920;12.238;2023-01-29T14:19:02;0.00;99.90
21001;DHT22;10658;50.920;12.238;2023-01-29T14:23:05;-0.10;99.90
21001;DHT22;10658;50.920;12.238;2023-01-29T14:27:19;-0.10;99.90
21001;DHT22;10658;50.920;12.238;2023-01-29T14:35:49;-0.20;99.90
21001;DHT22;10658;50.920;12.238;2023-01-29T14:39:54;-0.20;99.90
21001;DHT22;10658;50.920;12.238;2023-01-29T14:48:47;-0.30;99.90
21001;DHT22;10658;50.920;12.238;2023-01-29T14:52:51;-0.30;99.90
21001;DHT22;10658;50.920;12.238;2023-01-29T14:57:02;-0.30;99.90
21001;DHT22;10658;50.920;12.238;2023-01-29T15:01:39;-0.30;99.90
21001;DHT22;10658;50.920;12.238;2023-01-29T15:05:43;-0.40;99.90
21001;DHT22;10658;50.920;12.238;2023-01-29T15:10:15;-0.30;99.90
21001;DHT22;10658;50.920;12.238;2023-01-29T15:14:38;-0.40;99.90
21001;DHT22;10658;50.920;12.238;2023-01-29T15:18:42;-0.40;99.90
21001;DHT22;10658;50.920;12.238;2023-01-29T15:22:44;-0.40;99.90
21001;DHT22;10658;50.920;12.238;2023-01-29T15:26:46;-0.60;99.90
21001;DHT22;10658;50.920;12.238;2023-01-29T15:30:56;-0.50;99.90
21001;DHT22;10658;50.920;12.238;2023-01-29T15:35:09;-0.50;99.90
21001;DHT22;10658;50.920;12.238;2023-01-29T15:43:26;-0.60;99.90
21001;DHT22;10658;50.920;12.238;2023-01-29T15:47:31;-0.60;99.90
21001;DHT22;10658;50.920;12.238;2023-01-29T15:51:32;-0.70;99.90
21001;DHT22;10658;50.920;12.238;2023-01-29T15:55:34;-0.80;99.90
21001;DHT22;10658;50.920;12.238;2023-01-29T15:59:41;-0.90;99.90
21001;DHT22;10658;50.920;12.238;2023-01-29T16:03:44;-1.10;99.90
21001;DHT22;10658;50.920;12.238;2023-01-29T16:07:51;-1.00;99.90
21001;DHT22;10658;50.920;12.238;2023-01-29T16:11:58;-1.00;99.90
21001;DHT22;10658;50.920;12.238;2023-01-29T16:16:03;-1.00;99.90
21001;DHT22;10658;50.920;12.238;2023-01-29T16:20:18;-1.10;99.90
21001;DHT22;10658;50.920;12.238;2023-01-29T16:24:21;-1.10;99.90
21001;DHT22;10658;50.920;12.238;2023-01-29T16:28:25;-1.10;99.90
21001;DHT22;10658;50.920;12.238;2023-01-29T16:32:28;-1.10;99.90
21001;DHT22;10658;50.920;12.238;2023-01-29T16:36:30;-1.10;99.90
21001;DHT22;10658;50.920;12.238;2023-01-29T16:45:37;-1.20;99.90
21001;DHT22;10658;50.920;12.238;2023-01-29T16:49:41;-1.20;99.90
21001;DHT22;10658;50.920;12.238;2023-01-29T16:53:56;-1.30;99.90
21001;DHT22;10658;50.920;12.238;2023-01-29T16:58:03;-1.30;99.90
21001;DHT22;10658;50.920;12.238;2023-01-29T17:02:21;-1.30;99.90
21001;DHT22;10658;50.920;12.238;2023-01-29T17:06:25;-1.30;99.90
21001;DHT22;10658;50.920;12.238;2023-01-29T17:10:28;-1.30;99.90
21001;DHT22;10658;50.920;12.238;2023-01-29T17:14:34;-1.40;99.90
21001;DHT22;10658;50.920;12.238;2023-01-29T17:18:41;-1.40;99.90
21001;DHT22;10658;50.920;12.238;2023-01-29T17:22:43;-1.40;99.90
21001;DHT22;10658;50.920;12.238;2023-01-29T17:26:49;-1.50;99.90
21001;DHT22;10658;50.920;12.238;2023-01-29T17:30:50;-1.40;99.90
21001;DHT22;10658;50.920;12.238;2023-01-29T17:34:52;-1.40;99.90
21001;DHT22;10658;50.920;12.238;2023-01-29T17:38:53;-1.50;99.90
21001;DHT22;10658;50.920;12.238;2023-01-29T17:42:56;-1.50;99.90
21001;DHT22;10658;50.920;12.238;2023-01-29T17:46:59;-1.50;99.90
21001;DHT22;10658;50.920;12.238;2023-01-29T17:51:03;-1.60;99.90
21001;DHT22;10658;50.920;12.238;2023-01-29T17:55:07;-1.60;99.90
21001;DHT22;10658;50.920;12.238;2023-01-29T17:59:21;-1.60;99.90
21001;DHT22;10658;50.920;12.238;2023-01-29T18:03:23;-1.60;99.90
21001;DHT22;10658;50.920;12.238;2023-01-29T18:07:26;-1.60;99.90
21001;DHT22;10658;50.920;12.238;2023-01-29T18:11:29;-1.70;99.90
21001;DHT22;10658;50.920;12.238;2023-01-29T18:15:30;-1.60;99.90
21001;DHT22;10658;50.920;12.238;2023-01-29T18:19:32;-1.60;99.90
21001;DHT22;10658;50.920;12.238;2023-01-29T18:23:34;-1.60;99.90
21001;DHT22;10658;50.920;12.238;2023-01-29T18:27:35;-1.70;99.90
21001;DHT22;10658;50.920;12.238;2023-01-29T18:31:37;-1.70;99.90
21001;DHT22;10658;50.920;12.238;2023-01-29T18:35:38;-1.90;99.90
21001;DHT22;10658;50.920;12.238;2023-01-29T18:39:39;-2.00;99.90
21001;DHT22;10658;50.920;12.238;2023-01-29T18:43:41;-2.10;99.90
21001;DHT22;10658;50.920;12.238;2023-01-29T18:47:44;-2.20;99.90
21001;DHT22;10658;50.920;12.238;2023-01-29T18:51:46;-2.30;99.90
21001;DHT22;10658;50.920;12.238;2023-01-29T18:56:00;-2.40;99.90
21001;DHT22;10658;50.920;12.238;2023-01-29T19:00:04;-2.40;99.90
21001;DHT22;10658;50.920;12.238;2023-01-29T19:04:06;-2.50;99.90
21001;DHT22;10658;50.920;12.238;2023-01-29T19:08:08;-2.50;99.90
21001;DHT22;10658;50.920;12.238;2023-01-29T19:12:10;-2.50;99.90
21001;DHT22;10658;50.920;12.238;2023-01-29T19:16:12;-2.50;99.90
21001;DHT22;10658;50.920;12.238;2023-01-29T19:20:14;-2.50;99.90
21001;DHT22;10658;50.920;12.238;2023-01-29T19:24:19;-2.60;99.90
21001;DHT22;10658;50.920;12.238;2023-01-29T19:28:21;-2.60;99.90
21001;DHT22;10658;50.920;12.238;2023-01-29T19:32:22;-2.50;99.90
21001;DHT22;10658;50.920;12.238;2023-01-29T19:36:24;-2.60;99.90
21001;DHT22;10658;50.920;12.238;2023-01-29T19:40:28;-2.70;99.90
21001;DHT22;10658;50.920;12.238;2023-01-29T19:44:30;-2.70;99.90
21001;DHT22;10658;50.920;12.238;2023-01-29T19:48:31;-2.70;99.90
21001;DHT22;10658;50.920;12.238;2023-01-29T19:52:33;-2.70;99.90
21001;DHT22;10658;50.920;12.238;2023-01-29T19:56:35;-2.80;99.90
21001;DHT22;10658;50.920;12.238;2023-01-29T20:00:36;-2.90;99.90
21001;DHT22;10658;50.920;12.238;2023-01-29T20:04:38;-2.90;99.90
21001;DHT22;10658;50.920;12.238;2023-01-29T20:08:39;-2.90;99.90
21001;DHT22;10658;50.920;12.238;2023-01-29T20:12:44;-2.90;99.90
21001;DHT22;10658;50.920;12.238;2023-01-29T20:16:46;-2.90;99.90
21001;DHT22;10658;50.920;12.238;2023-01-29T20:20:49;-3.00;99.90
21001;DHT22;10658;50.920;12.238;2023-01-29T20:24:53;-3.00;99.90
21001;DHT22;10658;50.920;12.238;2023-01-29T20:28:54;-3.10;99.90
21001;DHT22;10658;50.920;12.238;2023-01-29T20:32:57;-3.10;99.90
21001;DHT22;10658;50.920;12.238;2023-01-29T20:36:59;-3.10;99.90
21001;DHT22;10658;50.920;12.238;2023-01-29T20:41:08;-3.10;99.90
21001;DHT22;10658;50.920;12.238;2023-01-29T20:45:10;-3.20;99.90
21001;DHT22;10658;50.920;12.238;2023-01-29T20:49:12;-3.20;99.90
21001;DHT22;10658;50.920;12.238;2023-01-29T20:53:15;-3.20;99.90
21001;DHT22;10658;50.920;12.238;2023-01-29T20:57:18;-3.20;99.90
21001;DHT22;10658;50.920;12.238;2023-01-29T21:01:27;-3.20;99.90
21001;DHT22;10658;50.920;12.238;2023-01-29T21:05:30;-3.30;99.90
21001;DHT22;10658;50.920;12.238;2023-01-29T21:09:33;-3.20;99.90
21001;DHT22;10658;50.920;12.238;2023-01-29T21:13:36;-3.10;99.90
21001;DHT22;10658;50.920;12.238;2023-01-29T21:17:39;-3.20;99.90
21001;DHT22;10658;50.920;12.238;2023-01-29T21:21:44;-3.20;99.90
21001;DHT22;10658;50.920;12.238;2023-01-29T21:25:47;-3.30;99.90
21001;DHT22;10658;50.920;12.238;2023-01-29T21:29:49;-3.30;99.90
21001;DHT22;10658;50.920;12.238;2023-01-29T21:33:53;-3.30;99.90
21001;DHT22;10658;50.920;12.238;2023-01-29T21:37:55;-3.30;99.90
21001;DHT22;10658;50.920;12.238;2023-01-29T21:41:57;-3.30;99.90
21001;DHT22;10658;50.920;12.238;2023-01-29T21:46:17;-3.30;99.90
21001;DHT22;10658;50.920;12.238;2023-01-29T21:50:20;-3.30;99.90
21001;DHT22;10658;50.920;12.238;2023-01-29T21:54:21;-3.40;99.90
21001;DHT22;10658;50.920;12.238;2023-01-29T21:58:26;-3.30;99.90
21001;DHT22;10658;50.920;12.238;2023-01-29T22:02:27;-3.30;99.90
21001;DHT22;10658;50.920;12.238;2023-01-29T22:06:32;-3.30;99.90
21001;DHT22;10658;50.920;12.238;2023-01-29T22:10:35;-3.20;99.90
21001;DHT22;10658;50.920;12.238;2023-01-29T22:14:38;-3.20;99.90
21001;DHT22;10658;50.920;12.238;2023-01-29T22:18:42;-3.20;99.90
21001;DHT22;10658;50.920;12.238;2023-01-29T22:22:45;-3.20;99.90
21001;DHT22;10658;50.920;12.238;2023-01-29T22:26:49;-3.20;99.90
21001;DHT22;10658;50.920;12.238;2023-01-29T22:30:51;-3.20;99.90
21001;DHT22;10658;50.920;12.238;2023-01-29T22:34:54;-3.10;99.90
21001;DHT22;10658;50.920;12.238;2023-01-29T22:38:59;-3.00;99.90
21001;DHT22;10658;50.920;12.238;2023-01-29T22:43:02;-2.90;99.90
21001;DHT22;10658;50.920;12.238;2023-01-29T22:47:04;-2.80;99.90
21001;DHT22;10658;50.920;12.238;2023-01-29T22:51:05;-2.70;99.90
21001;DHT22;10658;50.920;12.238;2023-01-29T22:55:12;-2.60;99.90
21001;DHT22;10658;50.920;12.238;2023-01-29T22:59:14;-2.60;99.90
21001;DHT22;10658;50.920;12.238;2023-01-29T23:03:17;-2.60;99.90
21001;DHT22;10658;50.920;12.238;2023-01-29T23:07:29;-2.60;99.90
21001;DHT22;10658;50.920;12.238;2023-01-29T23:11:35;-2.50;99.90
21001;DHT22;10658;50.920;12.238;2023-01-29T23:15:38;-2.50;99.90
21001;DHT22;10658;50.920;12.238;2023-01-29T23:19:39;-2.50;99.90
21001;DHT22;10658;50.920;12.238;2023-01-29T23:23:41;-2.50;99.90
21001;DHT22;10658;50.920;12.238;2023-01-29T23:27:43;-2.50;99.90
21001;DHT22;10658;50.920;12.238;2023-01-29T23:31:44;-2.40;99.90
21001;DHT22;10658;50.920;12.238;2023-01-29T23:35:45;-2.40;99.90
21001;DHT22;10658;50.920;12.238;2023-01-29T23:39:50;-2.40;99.90
21001;DHT22;10658;50.920;12.238;2023-01-29T23:43:51;-2.30;99.90
21001;DHT22;10658;50.920;12.238;2023-01-29T23:47:56;-2.30;99.90
21001;DHT22;10658;50.920;12.238;2023-01-29T23:52:03;-2.20;99.90
21001;DHT22;10658;50.920;12.238;2023-01-29T23:56:09;-2.10;99.90
